createdAt,value
2023-03-20T14:29:11.585Z,32.50
2023-03-20T14:32:14.967Z,26.88
2023-03-20T14:35:21.338Z,27.80
2023-03-20T14:38:22.757Z,30.15
2023-03-20T14:41:26.872Z,28.70
2023-03-20T14:44:38.528Z,29.92
2023-03-20T14:47:43.917Z,28.45
2023-03-20T14:50:39.769Z,31.00
2023-03-20T14:53:27.237Z,23.77
2023-03-20T14:56:15.435Z,27.45
2023-03-20T14:59:10.742Z,29.98
2023-03-20T15:01:59.444Z,34.78
2023-03-20T15:04:44.975Z,29.48
2023-03-20T15:07:35.751Z,28.27
2023-03-20T15:10:21.352Z,34.97
2023-03-20T15:13:07.992Z,33.88
2023-03-20T15:15:58.678Z,39.70
2023-03-20T15:18:47.265Z,28.80
2023-03-20T15:21:34.376Z,31.73
2023-03-20T15:24:25.251Z,27.70
2023-03-20T15:27:13.009Z,31.52
2023-03-20T15:30:01.026Z,32.88
2023-03-20T15:32:49.028Z,31.30
2023-03-20T15:35:34.321Z,35.47
2023-03-20T15:38:20.194Z,32.30
2023-03-20T15:41:07.786Z,30.45
2023-03-20T15:43:53.442Z,34.47
2023-03-20T15:46:38.616Z,30.30
2023-03-20T15:49:24.872Z,30.30
2023-03-20T15:52:38.069Z,31.42
2023-03-20T15:55:24.720Z,30.45
2023-03-20T15:58:14.109Z,26.17
2023-03-20T16:01:01.053Z,29.08
2023-03-20T16:03:46.662Z,29.67
2023-03-20T16:06:32.155Z,29.88
2023-03-20T16:09:17.614Z,27.58
2023-03-20T16:12:03.297Z,29.13
2023-03-20T16:14:51.273Z,31.60
2023-03-20T16:17:36.801Z,28.70
2023-03-20T16:20:23.820Z,30.00
2023-03-20T16:23:09.931Z,31.30
2023-03-20T16:25:59.238Z,31.42
2023-03-20T16:28:50.649Z,25.52
2023-03-20T16:31:37.352Z,28.40
2023-03-20T16:34:27.163Z,26.55
2023-03-20T16:37:28.845Z,31.90
2023-03-20T16:40:42.203Z,29.30
2023-03-20T16:43:31.549Z,28.33
2023-03-20T16:46:22.796Z,29.60
2023-03-20T16:49:32.208Z,30.45
2023-03-20T16:52:23.934Z,28.10
2023-03-20T16:55:26.823Z,25.98
2023-03-20T16:58:29.861Z,28.45
2023-03-20T17:01:21.651Z,26.35
2023-03-20T17:04:23.361Z,31.83
2023-03-20T17:07:23.758Z,26.10
2023-03-20T17:10:18.027Z,27.45
2023-03-20T17:13:03.529Z,31.92
2023-03-20T17:15:49.186Z,27.40
2023-03-20T17:18:36.125Z,26.73
2023-03-20T17:21:21.635Z,29.23
2023-03-20T17:24:07.069Z,36.95
2023-03-20T17:26:58.136Z,29.10
2023-03-20T17:29:44.303Z,31.40
2023-03-20T17:32:29.879Z,35.20
2023-03-20T17:35:15.557Z,31.38
2023-03-20T17:38:01.316Z,30.50
2023-03-20T17:40:47.487Z,27.70
2023-03-20T17:43:33.200Z,27.52
2023-03-20T17:46:28.393Z,32.45
2023-03-20T17:49:15.628Z,29.52
2023-03-20T17:52:00.999Z,28.85
2023-03-20T17:54:47.001Z,33.33
2023-03-20T17:57:37.787Z,29.40
2023-03-20T18:00:24.482Z,28.08
2023-03-20T18:03:10.583Z,30.17
2023-03-20T18:05:56.489Z,30.58
2023-03-20T18:08:41.565Z,28.42
2023-03-20T18:11:27.961Z,29.88
2023-03-20T18:14:17.798Z,29.17
2023-03-20T18:17:03.847Z,26.88
2023-03-20T18:19:48.943Z,28.85
2023-03-20T18:22:34.544Z,26.83
2023-03-20T18:25:19.687Z,28.65
2023-03-20T18:28:07.743Z,30.13
2023-03-20T18:30:53.523Z,28.88
2023-03-20T18:33:39.052Z,28.20
2023-03-20T18:36:25.257Z,30.63
2023-03-20T18:39:16.781Z,27.23
2023-03-20T18:42:02.225Z,27.02
2023-03-20T18:44:47.799Z,32.47
2023-03-20T18:47:33.251Z,33.30
2023-03-20T18:50:28.512Z,26.73
2023-03-20T18:53:13.609Z,30.05
2023-03-20T18:56:00.599Z,26.98
2023-03-20T18:58:46.838Z,24.67
2023-03-20T19:01:33.188Z,24.63
2023-03-20T19:04:19.320Z,25.95
2023-03-20T19:07:04.537Z,25.55
2023-03-20T19:09:49.583Z,27.98
2023-03-20T19:12:35.343Z,26.83
2023-03-20T19:15:21.500Z,25.40
2023-03-20T19:18:15.445Z,28.20
2023-03-20T19:21:01.126Z,24.38
2023-03-20T19:23:46.464Z,25.33
2023-03-20T19:26:33.399Z,27.85
2023-03-20T19:29:18.835Z,25.70
2023-03-20T19:32:04.324Z,27.17
2023-03-20T19:35:38.949Z,24.08
2023-03-20T19:37:55.811Z,22.85
2023-03-20T19:40:47.192Z,25.45
2023-03-20T19:43:32.630Z,22.83
2023-03-20T19:46:32.179Z,25.73
2023-03-20T19:49:30.457Z,28.83
2023-03-20T19:52:31.903Z,29.30
2023-03-20T19:55:17.634Z,23.20
2023-03-20T19:58:04.690Z,25.77
2023-03-20T20:00:59.246Z,27.67
2023-03-20T20:03:58.923Z,25.77
2023-03-20T20:06:47.258Z,22.80
2023-03-20T20:09:32.930Z,25.55
2023-03-20T20:12:18.293Z,24.83
2023-03-20T20:15:03.803Z,26.13
2023-03-20T20:17:49.135Z,27.27
2023-03-20T20:20:36.007Z,26.58
2023-03-20T20:23:27.504Z,28.77
2023-03-20T20:26:12.982Z,23.65
2023-03-20T20:28:59.526Z,24.63
2023-03-20T20:31:44.866Z,27.27
2023-03-20T20:40:44.534Z,18.88
2023-03-20T20:43:59.583Z,18.50
2023-03-20T20:46:35.461Z,16.38
2023-03-20T20:49:21.150Z,21.65
2023-03-20T20:52:06.801Z,18.67
2023-03-20T20:54:51.931Z,17.92
2023-03-20T20:57:37.549Z,21.75
2023-03-20T21:00:37.095Z,17.63
2023-03-20T21:03:28.881Z,16.95
2023-03-20T21:06:14.303Z,16.95
2023-03-20T21:08:59.514Z,19.52
2023-03-20T21:11:44.924Z,22.33
2023-03-20T21:14:30.752Z,20.48
2023-03-20T21:17:16.695Z,22.60
2023-03-20T21:20:02.362Z,22.10
2023-03-20T21:22:47.667Z,21.65
2023-03-20T21:25:40.762Z,18.00
2023-03-20T21:28:27.539Z,17.73
2023-03-20T21:31:26.204Z,19.67
2023-03-20T21:34:14.077Z,19.65
2023-03-20T21:37:00.125Z,20.67
2023-03-20T21:39:51.253Z,16.30
2023-03-20T21:42:37.003Z,21.85
2023-03-20T21:49:10.043Z,19.73
2023-03-20T22:01:29.780Z,19.83
2023-03-20T22:17:19.887Z,19.08
2023-03-20T22:20:09.165Z,16.67
2023-03-20T22:29:24.291Z,14.00
2023-03-20T22:35:41.869Z,13.07
2023-03-20T22:47:17.264Z,17.92
2023-03-20T22:50:03.114Z,17.08
2023-03-20T22:52:49.848Z,16.55
2023-03-20T22:55:35.646Z,17.88
2023-03-20T22:58:21.146Z,18.98
2023-03-20T23:01:08.822Z,18.20
2023-03-20T23:03:53.893Z,18.35
2023-03-20T23:06:40.999Z,14.77
2023-03-20T23:09:26.082Z,17.05
2023-03-20T23:12:11.704Z,18.42
2023-03-20T23:14:57.539Z,22.67
2023-03-20T23:17:42.832Z,18.88
2023-03-20T23:20:28.469Z,16.38
2023-03-20T23:23:13.757Z,13.45
2023-03-20T23:26:20.842Z,17.85
2023-03-20T23:29:06.648Z,18.27
2023-03-20T23:31:52.022Z,17.65
2023-03-20T23:34:37.238Z,15.70
2023-03-20T23:37:22.482Z,16.27
2023-03-20T23:40:10.527Z,19.60
2023-03-20T23:42:55.929Z,16.98
2023-03-20T23:45:41.421Z,14.48
2023-03-20T23:48:26.945Z,20.13
2023-03-20T23:51:12.160Z,18.27
2023-03-20T23:53:57.520Z,14.13
2023-03-20T23:56:43.024Z,19.08
2023-03-20T23:59:29.835Z,13.55
